Time;durP1;ratioP1;P1;durP2;ratioP2;P2;SDS_P1;SDS_P2;PMS_P1;PMS_P2;Temp;Humidity;BMP_temperature;BMP_pressure;BME280_temperature;BME280_humidity;BME280_pressure;Samples;Min_cycle;Max_cycle;Signal;HPM_P1;HPM_P2
2022/05/31 00:01:54;;;;;;;7.80;7.50;;;;;;;21.29;65.66;101471.59;5015535;28;20144;-61
2022/05/31 00:04:20;;;;;;;8.10;7.80;;;;;;;21.29;65.49;101468.84;5015495;28;20025;-61
2022/05/31 00:06:45;;;;;;;8.45;8.10;;;;;;;21.32;65.60;101462.16;5015556;28;20032;-61
2022/05/31 00:09:12;;;;;;;7.80;7.30;;;;;;;21.34;65.68;101462.03;5015443;28;20105;-60
2022/05/31 00:11:40;;;;;;;7.43;7.13;;;;;;;21.36;64.88;101457.22;5025824;28;20013;-60
2022/05/31 00:14:06;;;;;;;7.40;7.10;;;;;;;21.36;65.08;101451.75;5016487;28;20022;-60
2022/05/31 00:16:32;;;;;;;7.38;7.07;;;;;;;21.38;65.17;101455.16;5015196;28;20034;-60
2022/05/31 00:18:57;;;;;;;7.80;7.50;;;;;;;21.40;64.48;101447.63;5015315;28;20077;-60
2022/05/31 00:21:38;;;;;;;7.43;7.13;;;;;;;21.43;64.60;101439.06;5014849;28;20476;-61
2022/05/31 00:24:05;;;;;;;7.40;7.10;;;;;;;21.44;64.29;101438.03;5015214;28;20457;-61
2022/05/31 00:26:31;;;;;;;7.20;6.90;;;;;;;21.46;64.59;101435.97;5015057;28;20025;-60
2022/05/31 00:28:56;;;;;;;7.15;6.85;;;;;;;21.45;64.34;101434.25;5015132;28;20488;-61
2022/05/31 00:31:21;;;;;;;7.68;7.38;;;;;;;21.46;64.37;101435.97;5014909;28;20026;-61
2022/05/31 00:33:47;;;;;;;7.75;7.35;;;;;;;21.47;63.61;101440.41;5014954;28;20022;-61
2022/05/31 00:36:12;;;;;;;7.30;7.00;;;;;;;21.47;63.79;101438.53;5014911;28;20029;-61
2022/05/31 00:38:37;;;;;;;7.40;7.10;;;;;;;21.48;63.41;101433.91;5014820;28;20553;-61
2022/05/31 00:41:23;;;;;;;7.53;7.22;;;;;;;21.49;64.08;101424.66;5014802;28;20520;-61
2022/05/31 00:44:04;;;;;;;7.90;7.50;;;;;;;21.48;63.80;101428.44;5014798;28;20030;-61
2022/05/31 00:46:52;;;;;;;7.50;7.20;;;;;;;21.49;63.37;101424.66;5014548;28;20022;-61
2022/05/31 00:49:48;;;;;;;7.60;7.30;;;;;;;21.50;63.84;101426.38;5014650;28;20108;-62
2022/05/31 00:52:17;;;;;;;8.05;7.45;;;;;;;21.50;63.06;101426.38;5013384;28;20117;-61
2022/05/31 00:54:52;;;;;;;7.85;7.47;;;;;;;21.50;63.75;101424.50;5032092;28;20109;-61
2022/05/31 00:57:18;;;;;;;8.25;7.85;;;;;;;21.50;63.27;101415.41;5023801;28;20433;-61
2022/05/31 00:59:54;;;;;;;7.78;7.47;;;;;;;21.50;63.28;101409.94;5014457;28;20060;-61
2022/05/31 01:02:20;;;;;;;8.30;7.90;;;;;;;21.51;63.32;101406.22;5014333;28;20474;-61
2022/05/31 01:04:50;;;;;;;7.60;7.30;;;;;;;21.52;63.68;101413.38;5014427;28;20108;-61
2022/05/31 01:07:16;;;;;;;7.55;7.25;;;;;;;21.53;63.55;101409.63;5013247;28;20021;-61
2022/05/31 01:09:41;;;;;;;7.53;7.13;;;;;;;21.51;63.10;101406.22;5014329;28;20305;-61
2022/05/31 01:12:07;;;;;;;7.78;7.47;;;;;;;21.51;63.25;101406.22;5014266;28;20401;-61
2022/05/31 01:14:33;;;;;;;7.70;7.40;;;;;;;21.52;62.76;101408.78;5014032;28;20104;-61
2022/05/31 01:17:05;;;;;;;7.53;7.13;;;;;;;21.53;62.72;101398.69;5014198;28;20029;-61
2022/05/31 01:22:16;;;;;;;7.80;7.50;;;;;;;21.53;63.25;101398.69;5014079;28;20072;-61
2022/05/31 01:24:56;;;;;;;7.68;7.28;;;;;;;21.53;63.38;101398.69;5013949;28;20025;-61
2022/05/31 01:27:41;;;;;;;7.60;7.30;;;;;;;21.55;62.87;101400.19;5013886;28;20108;-61
2022/05/31 01:30:09;;;;;;;7.30;7.00;;;;;;;21.54;62.64;101400.38;5013923;28;20037;-61
2022/05/31 01:32:40;;;;;;;8.18;7.60;;;;;;;21.54;63.32;101400.38;5013680;28;20018;-61
2022/05/31 01:35:11;;;;;;;7.70;7.40;;;;;;;21.56;62.86;101392.84;5013895;28;20067;-61
2022/05/31 01:37:45;;;;;;;7.60;7.30;;;;;;;21.56;63.19;101395.59;5019528;28;20025;-58
2022/05/31 01:40:13;;;;;;;;;;;;;;;21.54;62.94;101389.44;5015355;28;20034;-61
2022/05/31 01:42:46;;;;;;;7.95;7.55;;;;;;;21.53;62.90;101388.59;5013648;28;19916;-61
2022/05/31 01:45:21;;;;;;;7.97;7.57;;;;;;;21.55;62.90;101374.72;5013709;28;20022;-61
2022/05/31 01:47:47;;;;;;;7.75;7.45;;;;;;;21.54;62.53;101367.56;5013654;28;20056;-61
2022/05/31 01:50:16;;;;;;;8.07;7.75;;;;;;;21.55;62.80;101370.09;5013732;28;20029;-61
2022/05/31 01:52:42;;;;;;;7.63;7.32;;;;;;;21.55;62.77;101374.72;5013519;28;20018;-61
2022/05/31 01:55:09;;;;;;;8.57;8.27;;;;;;;21.55;62.84;101366.53;5013396;28;20036;-61
2022/05/31 01:57:36;;;;;;;7.40;7.10;;;;;;;21.55;63.26;101369.25;5013358;28;20029;-61
2022/05/31 02:00:07;;;;;;;7.70;7.35;;;;;;;21.55;63.07;101358.31;5013407;28;20068;-61
2022/05/31 02:02:33;;;;;;;8.23;7.82;;;;;;;21.55;63.30;101353.69;5013257;28;20046;-62
2022/05/31 02:04:58;;;;;;;8.10;7.70;;;;;;;21.55;62.59;101355.56;5012588;28;20021;-61
2022/05/31 02:07:26;;;;;;;7.38;7.00;;;;;;;21.56;62.67;101358.13;5013115;28;20060;-61
2022/05/31 02:09:52;;;;;;;7.75;7.25;;;;;;;21.55;63.20;101353.69;5013196;28;20026;-61
2022/05/31 02:12:20;;;;;;;7.57;7.22;;;;;;;21.52;62.79;101347.72;5013473;28;20083;-61
2022/05/31 02:14:46;;;;;;;7.40;7.10;;;;;;;21.55;63.15;101347.38;5028055;28;20026;-61
2022/05/31 02:17:12;;;;;;;7.50;7.20;;;;;;;21.54;63.32;101346.53;5022643;28;20032;-61
2022/05/31 02:19:38;;;;;;;7.32;7.03;;;;;;;21.53;63.15;101349.44;5011728;28;20034;-61
2022/05/31 02:22:07;;;;;;;7.80;7.50;;;;;;;21.55;62.82;101341.91;5012899;28;20042;-61
2022/05/31 02:24:32;;;;;;;7.60;7.30;;;;;;;21.56;63.03;101340.88;5011633;28;20165;-61
2022/05/31 02:26:58;;;;;;;7.63;7.32;;;;;;;21.57;62.35;101343.41;5012961;28;20022;-61
2022/05/31 02:29:26;;;;;;;7.82;7.53;;;;;;;21.57;62.56;101346.16;5012870;28;20026;-61
2022/05/31 02:31:52;;;;;;;7.40;7.10;;;;;;;21.55;62.29;101342.75;5012974;28;20025;-61
2022/05/31 02:34:22;;;;;;;7.28;6.97;;;;;;;21.55;62.51;101347.38;5012797;28;20041;-61
2022/05/31 02:36:48;;;;;;;7.55;7.25;;;;;;;21.57;62.37;101342.56;5013182;28;20026;-61
2022/05/31 02:39:14;;;;;;;7.22;6.93;;;;;;;21.57;63.36;101337.09;5013233;28;20096;-61
2022/05/31 02:41:39;;;;;;;7.53;7.22;;;;;;;21.56;62.90;101338.97;5012801;28;20113;-61
2022/05/31 02:44:06;;;;;;;7.57;7.28;;;;;;;21.55;63.41;101326.34;5012853;28;20044;-62
2022/05/31 02:46:32;;;;;;;7.28;6.97;;;;;;;21.57;62.97;101317.94;5012595;28;20475;-61
2022/05/31 02:48:57;;;;;;;7.15;6.80;;;;;;;21.55;62.70;101326.34;5012852;28;20108;-61
2022/05/31 02:51:22;;;;;;;8.07;7.78;;;;;;;21.57;62.53;101328.88;5012565;28;20021;-61
2022/05/31 02:53:47;;;;;;;7.30;7.00;;;;;;;21.55;62.89;101328.22;5012995;28;20030;-61
2022/05/31 02:56:13;;;;;;;7.22;6.93;;;;;;;21.56;62.60;101327.19;5012718;28;20030;-61
2022/05/31 02:58:38;;;;;;;7.90;7.50;;;;;;;21.56;62.61;101332.66;5016355;28;20021;-61
2022/05/31 03:01:23;;;;;;;7.78;7.47;;;;;;;21.55;63.09;101341.91;5025861;28;20060;-61
2022/05/31 03:03:49;;;;;;;7.45;7.05;;;;;;;21.57;63.59;101356.25;5012913;28;20029;-61
2022/05/31 03:06:15;;;;;;;7.60;7.30;;;;;;;21.57;63.32;101361.72;5012610;28;20021;-61
2022/05/31 03:08:41;;;;;;;7.60;7.30;;;;;;;21.57;63.50;101369.91;5012660;28;20405;-62
2022/05/31 03:11:09;;;;;;;7.50;7.20;;;;;;;21.57;63.04;101356.25;5012617;28;20030;-61
2022/05/31 03:13:35;;;;;;;7.70;7.40;;;;;;;21.56;63.46;101338.13;5012320;28;20057;-61
2022/05/31 03:16:02;;;;;;;7.22;6.93;;;;;;;21.57;62.92;101337.09;5014827;28;20030;-61
2022/05/31 03:18:34;;;;;;;7.15;6.85;;;;;;;21.56;62.96;101291.63;5014981;28;20462;-61
2022/05/31 03:21:07;;;;;;;8.00;7.70;;;;;;;21.56;63.46;101300.66;5016671;28;20048;-61
2022/05/31 03:23:43;;;;;;;8.00;7.60;;;;;;;21.58;63.64;101300.50;5016003;28;20060;-61
2022/05/31 03:26:12;;;;;;;7.38;7.07;;;;;;;21.59;63.60;101300.31;5016155;28;20152;-61
2022/05/31 03:28:38;;;;;;;7.13;6.82;;;;;;;21.58;63.52;101298.59;5016065;28;20029;-61
2022/05/31 03:31:05;;;;;;;7.97;7.57;;;;;;;21.58;63.25;101300.50;5014896;28;20026;-61
2022/05/31 03:33:32;;;;;;;8.40;8.00;;;;;;;21.59;63.84;101311.25;5016040;28;20030;-60
2022/05/31 03:35:57;;;;;;;7.60;7.30;;;;;;;21.57;63.69;101298.78;5017753;28;20061;-60
2022/05/31 03:38:22;;;;;;;7.63;7.32;;;;;;;21.57;63.89;101307.00;5026257;28;20033;-61
2022/05/31 03:40:57;;;;;;;7.70;7.35;;;;;;;21.59;64.36;101304.94;5016086;28;20461;-61
2022/05/31 03:43:24;;;;;;;7.63;7.22;;;;;;;21.60;64.23;101306.63;5014652;28;20110;-61
2022/05/31 03:45:49;;;;;;;7.80;7.50;;;;;;;21.61;64.71;101289.19;5015918;28;20029;-62
2022/05/31 03:48:15;;;;;;;7.93;7.57;;;;;;;21.59;64.28;101293.97;5015803;28;20018;-61
2022/05/31 03:50:41;;;;;;;8.15;7.85;;;;;;;21.60;63.99;101282.00;5014463;28;20022;-61
2022/05/31 03:53:09;;;;;;;8.13;7.72;;;;;;;21.60;64.07;101279.25;5015873;28;20029;-61
2022/05/31 03:55:46;;;;;;;7.63;7.22;;;;;;;21.61;64.49;101280.97;5015449;28;20029;-60
2022/05/31 03:58:12;;;;;;;7.35;7.05;;;;;;;21.60;64.86;101271.91;5016142;28;20108;-60
2022/05/31 04:00:37;;;;;;;8.13;7.72;;;;;;;21.62;65.04;101277.19;5015488;28;20121;-61
2022/05/31 04:03:03;;;;;;;0.30;0.30;;;;;;;22.04;62.95;101271.22;5015902;28;20496;-61
2022/05/31 04:05:28;;;;;;;0.30;0.30;;;;;;;22.39;62.35;101269.69;5015446;28;20033;-61
2022/05/31 04:07:55;;;;;;;0.32;0.32;;;;;;;22.67;61.67;101260.78;5015496;28;20033;-61
2022/05/31 04:10:21;;;;;;;0.82;0.30;;;;;;;22.88;60.99;101258.19;5015356;28;20040;-60
2022/05/31 04:12:47;;;;;;;1.92;0.40;;;;;;;23.04;61.70;101251.63;5015520;28;20026;-61
2022/05/31 04:15:13;;;;;;;0.30;0.30;;;;;;;23.14;61.94;101241.19;5030152;28;20409;-60
2022/05/31 04:17:38;;;;;;;0.95;0.55;;;;;;;23.30;62.61;101229.13;5015128;28;20049;-61
2022/05/31 04:20:04;;;;;;;0.75;0.40;;;;;;;23.44;62.50;101222.72;5015275;28;20022;-61
2022/05/31 04:22:29;;;;;;;0.20;0.10;;;;;;;23.56;62.99;101229.41;5014901;28;20041;-61
2022/05/31 04:25:00;;;;;;;0.22;0.22;;;;;;;23.66;63.58;101232.69;5015367;28;20050;-61
2022/05/31 04:27:27;;;;;;;0.43;0.30;;;;;;;23.78;63.62;101227.50;5014417;28;20073;-61
2022/05/31 04:29:52;;;;;;;0.43;0.30;;;;;;;23.86;64.12;101229.28;5015045;28;20033;-61
2022/05/31 04:32:18;;;;;;;0.20;0.17;;;;;;;23.92;64.76;101229.31;5013722;28;20507;-61
2022/05/31 04:34:43;;;;;;;0.28;0.28;;;;;;;24.03;64.91;101225.19;5014864;28;20438;-60
2022/05/31 04:37:09;;;;;;;0.30;0.25;;;;;;;24.08;65.20;101225.44;5014885;28;20044;-61
2022/05/31 04:39:34;;;;;;;0.55;0.40;;;;;;;24.22;64.74;101224.47;5013429;28;20029;-60
2022/05/31 04:41:59;;;;;;;0.28;0.22;;;;;;;23.82;65.18;101225.22;5015096;28;20032;-59
2022/05/31 04:44:25;;;;;;;0.30;0.30;;;;;;;23.32;64.44;101224.28;5014739;28;20477;-61
2022/05/31 04:46:50;;;;;;;0.17;0.17;;;;;;;23.00;63.15;101222.88;5014765;28;20034;-62
2022/05/31 04:49:16;;;;;;;0.40;0.20;;;;;;;22.78;60.65;101219.19;5014646;28;20284;-61
2022/05/31 04:51:41;;;;;;;0.20;0.20;;;;;;;22.62;59.13;101224.91;5014581;28;20026;-61
2022/05/31 04:54:07;;;;;;;0.20;0.20;;;;;;;22.50;58.63;101228.09;5017246;28;20514;-61
2022/05/31 04:56:33;;;;;;;0.20;0.20;;;;;;;22.45;56.43;101227.81;5018961;28;20032;-60
2022/05/31 04:58:59;;;;;;;0.93;0.20;;;;;;;22.30;55.94;101221.50;5014702;28;20022;-61
2022/05/31 05:01:25;;;;;;;0.45;0.22;;;;;;;22.14;56.61;101224.41;5014290;28;20144;-61
2022/05/31 05:03:51;;;;;;;0.20;0.20;;;;;;;22.12;55.85;101223.75;5014530;28;20099;-61
2022/05/31 05:06:18;;;;;;;1.00;0.30;;;;;;;22.12;54.74;101223.75;5014308;28;20034;-61
2022/05/31 05:08:44;;;;;;;0.22;0.20;;;;;;;22.07;54.88;101221.59;5014306;28;20018;-60
2022/05/31 05:11:12;;;;;;;0.40;0.30;;;;;;;22.06;55.92;101210.81;5014586;28;20030;-60
2022/05/31 05:13:38;;;;;;;1.58;0.38;;;;;;;22.00;54.95;101208.78;5014072;28;20026;-61
2022/05/31 05:16:05;;;;;;;0.40;0.30;;;;;;;22.02;54.24;101195.78;5014111;28;20036;-61
2022/05/31 05:18:30;;;;;;;0.57;0.30;;;;;;;21.95;55.10;101203.03;5014078;28;20044;-61
2022/05/31 05:20:56;;;;;;;0.28;0.20;;;;;;;21.88;54.11;101195.56;5014123;28;20018;-61
2022/05/31 05:23:21;;;;;;;0.60;0.35;;;;;;;21.96;54.46;101188.28;5013751;28;20056;-61
2022/05/31 05:25:52;;;;;;;1.15;0.25;;;;;;;21.91;55.05;101189.72;5013963;28;20024;-59
2022/05/31 05:31:02;;;;;;;0.30;0.30;;;;;;;21.82;54.54;101190.81;5014236;28;20476;-61
2022/05/31 05:33:28;;;;;;;0.50;0.50;;;;;;;21.91;53.90;101184.25;5018960;28;20034;-61
2022/05/31 05:35:54;;;;;;;0.85;0.20;;;;;;;21.81;54.57;101178.16;5020415;28;20017;-61
2022/05/31 05:38:19;;;;;;;0.68;0.40;;;;;;;21.75;55.01;101178.94;5013611;28;20384;-61
2022/05/31 05:40:44;;;;;;;1.17;0.30;;;;;;;21.81;55.25;101178.16;5013956;28;20458;-61
2022/05/31 05:43:10;;;;;;;0.30;0.30;;;;;;;21.85;54.62;101168.56;5013779;28;20030;-61
2022/05/31 05:45:36;;;;;;;0.32;0.32;;;;;;;21.90;54.52;101168.00;5013885;28;20619;-62
2022/05/31 05:48:03;;;;;;;0.70;0.20;;;;;;;21.82;55.67;101174.41;5013651;28;20034;-61
2022/05/31 05:50:28;;;;;;;0.30;0.20;;;;;;;21.90;54.23;101181.69;5013544;28;20029;-60
2022/05/31 05:53:00;;;;;;;0.85;0.25;;;;;;;21.93;55.19;101182.16;5013585;28;20026;-61
2022/05/31 05:55:26;;;;;;;0.35;0.30;;;;;;;21.92;54.68;101169.50;5013275;28;20064;-61
2022/05/31 05:57:51;;;;;;;0.30;0.30;;;;;;;21.87;55.27;101166.50;5013702;28;20061;-61
2022/05/31 06:00:16;;;;;;;0.68;0.30;;;;;;;22.01;56.29;101174.91;5013461;28;20028;-61
2022/05/31 06:02:47;;;;;;;0.80;0.38;;;;;;;21.96;54.66;101169.13;5013356;28;20414;-61
2022/05/31 06:05:20;;;;;;;0.30;0.20;;;;;;;21.98;55.11;101164.31;5013387;28;20022;-61
2022/05/31 06:07:56;;;;;;;0.50;0.28;;;;;;;21.96;55.42;101160.91;5013357;28;20052;-61
2022/05/31 06:10:33;;;;;;;0.30;0.30;;;;;;;22.00;55.88;101154.03;5013104;28;20026;-61
2022/05/31 06:13:08;;;;;;;0.50;0.30;;;;;;;21.97;55.11;101138.84;5021306;28;20033;-61
2022/05/31 06:15:38;;;;;;;0.30;0.30;;;;;;;22.00;55.22;101132.97;5012950;28;20131;-61
2022/05/31 06:18:12;;;;;;;0.55;0.03;;;;;;;22.03;56.70;101132.63;5013231;28;20033;-61
2022/05/31 06:20:37;;;;;;;;;;;;;;;22.08;54.75;101129.34;5013747;28;20029;-61
2022/05/31 06:23:03;;;;;;;0.20;0.20;;;;;;;22.05;55.67;101130.56;5012756;28;19917;-61
2022/05/31 06:25:28;;;;;;;1.25;0.25;;;;;;;21.99;55.72;101130.44;5012838;28;20045;-61
2022/05/31 06:27:53;;;;;;;0.85;0.20;;;;;;;22.06;55.02;101135.00;5012975;28;20373;-61
2022/05/31 06:30:19;;;;;;;0.30;0.20;;;;;;;21.91;56.31;101126.75;5012888;28;20030;-61
2022/05/31 06:32:44;;;;;;;0.20;0.20;;;;;;;22.04;55.39;101128.00;5012960;28;20392;-61
2022/05/31 06:35:10;;;;;;;0.88;0.30;;;;;;;22.08;55.28;101123.88;5012854;28;20030;-61
2022/05/31 06:37:36;;;;;;;0.38;0.20;;;;;;;22.06;56.08;101131.41;5012905;28;20068;-61
2022/05/31 06:40:02;;;;;;;0.10;0.10;;;;;;;22.00;56.39;101137.59;5012956;28;20040;-61
2022/05/31 06:42:31;;;;;;;0.20;0.20;;;;;;;22.14;55.38;101139.53;5012634;28;20132;-61
2022/05/31 06:44:57;;;;;;;0.20;0.20;;;;;;;22.05;56.09;101127.00;5017083;28;20028;-60
2022/05/31 06:47:22;;;;;;;0.20;0.20;;;;;;;22.13;54.78;101121.41;5022746;28;20462;-62
2022/05/31 06:49:47;;;;;;;0.43;0.20;;;;;;;22.10;55.29;101128.09;5010958;28;20105;-61
2022/05/31 06:57:43;;;;;;;0.45;0.20;;;;;;;22.05;55.62;101113.28;5012826;28;20096;-61
2022/05/31 07:00:13;;;;;;;0.52;0.30;;;;;;;22.10;55.78;101111.69;5012697;28;20038;-62
2022/05/31 07:02:38;;;;;;;0.28;0.28;;;;;;;22.06;56.21;101109.53;5012389;28;20036;-61
2022/05/31 07:05:04;;;;;;;0.80;0.20;;;;;;;22.14;55.87;101106.66;5012642;28;20021;-61
2022/05/31 07:07:30;;;;;;;0.20;0.20;;;;;;;22.08;54.46;101104.69;5011515;28;20109;-61
2022/05/31 07:09:56;;;;;;;0.20;0.17;;;;;;;22.08;55.41;101101.97;5011703;28;20109;-61
2022/05/31 07:12:21;;;;;;;0.20;0.20;;;;;;;22.07;55.47;101100.28;5011766;28;20069;-61
2022/05/31 07:14:46;;;;;;;0.30;0.30;;;;;;;22.04;56.28;101095.16;5011410;28;20021;-61
2022/05/31 07:17:12;;;;;;;0.30;0.30;;;;;;;22.13;55.89;101100.34;5011721;28;20033;-61
2022/05/31 07:19:38;;;;;;;0.43;0.30;;;;;;;22.07;55.59;101100.28;5016304;28;20070;-60
2022/05/31 07:22:04;;;;;;;0.35;0.32;;;;;;;22.13;55.69;101099.50;5010397;28;20030;-61
2022/05/31 07:24:30;;;;;;;0.80;0.25;;;;;;;22.14;54.67;101095.72;5010871;28;20401;-61
2022/05/31 07:26:55;;;;;;;0.85;0.38;;;;;;;22.12;56.93;101098.66;5010978;28;20021;-61
2022/05/31 07:29:21;;;;;;;0.60;0.30;;;;;;;22.11;56.04;101090.63;5010897;28;20034;-61
2022/05/31 07:31:47;;;;;;;0.20;0.20;;;;;;;22.08;56.66;101085.53;5011464;28;20154;-61
2022/05/31 07:34:13;;;;;;;0.47;0.25;;;;;;;22.10;55.73;101091.66;5010945;28;20033;-61
2022/05/31 07:36:39;;;;;;;0.30;0.20;;;;;;;22.12;56.35;101089.59;5010832;28;20018;-62
2022/05/31 07:39:05;;;;;;;1.10;0.30;;;;;;;22.07;57.10;101089.31;5010953;28;20053;-61
2022/05/31 07:41:32;;;;;;;0.85;0.45;;;;;;;22.03;56.50;101085.22;5006941;28;20033;-61
2022/05/31 07:43:58;;;;;;;2.25;0.47;;;;;;;22.08;55.19;101091.00;5010973;28;20097;-62
2022/05/31 07:46:24;;;;;;;3.13;0.75;;;;;;;22.08;55.93;101080.91;5010982;28;20071;-61
2022/05/31 07:48:49;;;;;;;2.35;0.40;;;;;;;22.09;57.94;101076.28;5018172;28;20026;-60
2022/05/31 07:51:15;;;;;;;1.20;0.30;;;;;;;22.06;56.72;101071.19;5009177;28;20354;-60
2022/05/31 07:53:40;;;;;;;0.68;0.30;;;;;;;22.16;55.97;101066.25;5009465;28;20026;-62
2022/05/31 07:56:07;;;;;;;0.93;0.50;;;;;;;22.02;56.39;101075.31;5009494;28;20022;-62
2022/05/31 07:58:33;;;;;;;0.88;0.45;;;;;;;22.13;56.33;101063.91;5010642;28;20026;-62
2022/05/31 08:01:01;;;;;;;2.05;0.57;;;;;;;22.08;56.64;101059.00;5010849;28;20465;-58
2022/05/31 08:03:27;;;;;;;0.47;0.30;;;;;;;22.15;55.97;101061.81;5013147;28;20026;-60
2022/05/31 08:05:53;;;;;;;0.50;0.32;;;;;;;22.08;55.82;101052.69;5016953;28;20059;-60
2022/05/31 08:08:19;;;;;;;0.65;0.30;;;;;;;22.11;56.49;101057.78;5035235;28;20029;-61
2022/05/31 08:10:44;;;;;;;1.70;0.30;;;;;;;22.08;55.59;101058.16;5035240;28;20036;-61
2022/05/31 08:13:09;;;;;;;0.88;0.40;;;;;;;22.07;56.00;101057.31;5035189;28;20087;-60
2022/05/31 08:15:35;;;;;;;0.70;0.40;;;;;;;22.03;55.62;101055.13;5034928;28;20370;-60
2022/05/31 08:18:01;;;;;;;1.55;0.30;;;;;;;22.19;56.07;101055.78;5038184;28;20022;-59
2022/05/31 08:20:26;;;;;;;0.63;0.30;;;;;;;22.14;56.11;101049.16;5036633;28;20424;-61
2022/05/31 08:22:51;;;;;;;1.38;0.20;;;;;;;22.18;55.39;101053.25;5033529;28;20504;-61
2022/05/31 08:25:17;;;;;;;0.98;0.20;;;;;;;22.07;56.25;101056.47;5025833;28;20018;-61
2022/05/31 08:27:42;;;;;;;3.38;0.80;;;;;;;22.13;56.42;101050.22;5013805;28;20121;-61
2022/05/31 08:30:08;;;;;;;1.15;0.45;;;;;;;22.19;55.55;101044.00;5015154;28;20037;-61
2022/05/31 08:32:36;;;;;;;0.30;0.22;;;;;;;22.14;56.20;101051.91;5014079;28;20032;-61
2022/05/31 08:35:02;;;;;;;1.13;0.22;;;;;;;22.13;57.16;101045.59;5014904;28;20525;-61
2022/05/31 08:37:27;;;;;;;0.65;0.20;;;;;;;22.11;56.34;101050.41;5009541;28;20454;-62
2022/05/31 08:39:52;;;;;;;0.30;0.20;;;;;;;22.14;56.06;101035.47;5007601;28;20061;-61
2022/05/31 08:42:22;;;;;;;0.30;0.22;;;;;;;22.20;56.35;101045.69;4995175;28;20242;-61
2022/05/31 08:45:17;;;;;;;0.47;0.25;;;;;;;22.19;55.68;101044.00;4995324;28;20421;-61
2022/05/31 08:48:05;;;;;;;0.93;0.57;;;;;;;22.14;56.33;101036.31;5005300;28;20026;-60
2022/05/31 08:53:33;;;;;;;1.30;0.22;;;;;;;22.15;55.46;101009.78;4995295;28;20029;-61
2022/05/31 08:59:11;;;;;;;0.38;0.20;;;;;;;22.24;55.89;101022.34;5014841;28;20121;-61
2022/05/31 09:01:59;;;;;;;0.38;0.25;;;;;;;22.18;56.22;101026.72;5013008;28;20219;-61
2022/05/31 09:04:39;;;;;;;0.20;0.20;;;;;;;22.19;55.45;101027.56;5012210;28;20405;-61
2022/05/31 09:07:12;;;;;;;0.80;0.30;;;;;;;22.21;56.31;101022.72;5013507;28;20470;-60
2022/05/31 09:09:58;;;;;;;0.53;0.20;;;;;;;22.18;56.14;101023.13;5012949;28;20104;-60
2022/05/31 09:12:44;;;;;;;0.57;0.30;;;;;;;22.19;56.10;101014.72;5012440;28;20033;-60
2022/05/31 09:15:19;;;;;;;0.80;0.20;;;;;;;22.12;56.55;101021.13;5012724;28;20034;-60
2022/05/31 09:17:59;;;;;;;1.15;0.30;;;;;;;22.12;55.44;101010.19;5012686;28;20401;-60
2022/05/31 09:20:39;;;;;;;0.75;0.30;;;;;;;22.26;55.90;101016.66;5012589;28;20041;-61
2022/05/31 09:23:04;;;;;;;0.68;0.40;;;;;;;22.23;57.32;101009.69;5011475;28;20092;-60
2022/05/31 09:25:44;;;;;;;0.55;0.20;;;;;;;22.17;58.16;101013.19;5013243;28;20637;-60
2022/05/31 09:28:34;;;;;;;1.90;0.50;;;;;;;22.19;56.90;101005.66;5013237;28;20064;-61
2022/05/31 09:31:06;;;;;;;1.40;0.52;;;;;;;22.22;56.30;100999.78;5012005;28;20430;-60
2022/05/31 09:33:45;;;;;;;1.25;0.68;;;;;;;22.22;56.61;100999.78;5008667;28;20022;-60
2022/05/31 09:36:13;;;;;;;0.63;0.30;;;;;;;22.36;57.00;100995.31;5012143;28;20520;-60
2022/05/31 09:39:16;;;;;;;1.27;0.30;;;;;;;22.23;56.67;100990.53;5020132;28;20021;-61
2022/05/31 09:41:51;;;;;;;0.85;0.50;;;;;;;22.21;57.15;100987.13;5012279;28;20030;-61
2022/05/31 09:44:30;;;;;;;1.08;0.40;;;;;;;22.22;57.97;100988.81;5012230;28;20029;-60
2022/05/31 09:47:16;;;;;;;2.83;0.77;;;;;;;22.26;57.66;100984.66;5012215;28;20057;-60
2022/05/31 09:49:47;;;;;;;0.45;0.32;;;;;;;22.21;57.74;100992.59;5010799;28;20034;-60
2022/05/31 09:52:30;;;;;;;1.10;0.43;;;;;;;22.27;57.74;100990.97;5010687;28;20030;-62
2022/05/31 09:58:19;;;;;;;1.55;0.60;;;;;;;22.23;57.46;100985.03;5013176;28;20121;-61
2022/05/31 10:01:02;;;;;;;1.17;0.38;;;;;;;22.18;58.10;100998.47;5013672;28;20420;-60
2022/05/31 10:03:46;;;;;;;0.50;0.43;;;;;;;22.19;57.77;101000.19;5013307;28;20034;-61
2022/05/31 10:06:19;;;;;;;0.70;0.40;;;;;;;22.16;57.27;100997.78;5013111;28;20029;-61
2022/05/31 10:08:47;;;;;;;0.95;0.43;;;;;;;22.14;57.26;100991.66;5013378;28;20033;-60
2022/05/31 10:11:37;;;;;;;1.05;0.30;;;;;;;22.13;57.27;100984.50;5011896;28;20087;-60
2022/05/31 10:14:20;;;;;;;0.20;0.20;;;;;;;22.15;57.04;100982.41;5013118;28;20021;-61
2022/05/31 10:16:47;;;;;;;0.80;0.40;;;;;;;22.15;57.48;100977.78;5013107;28;20040;-61
2022/05/31 10:19:30;;;;;;;1.52;0.57;;;;;;;22.26;57.38;100981.06;5013123;28;20053;-60
2022/05/31 10:22:13;;;;;;;0.32;0.30;;;;;;;22.19;57.13;100983.75;5012928;28;20152;-60
2022/05/31 10:24:38;;;;;;;0.60;0.25;;;;;;;22.17;57.65;100980.31;5012845;28;20104;-61
2022/05/31 10:27:09;;;;;;;0.75;0.25;;;;;;;22.13;57.03;100984.50;5013184;28;20115;-60
2022/05/31 10:29:49;;;;;;;1.05;0.28;;;;;;;22.11;57.20;100986.59;5013041;28;20525;-60
2022/05/31 10:32:24;;;;;;;0.60;0.40;;;;;;;22.14;57.08;100986.19;5012877;28;20025;-60
2022/05/31 10:35:04;;;;;;;0.63;0.28;;;;;;;22.13;57.09;100984.50;5013436;28;20029;-61
2022/05/31 10:37:32;;;;;;;1.88;0.60;;;;;;;22.15;57.10;100987.88;5012708;28;20026;-60
2022/05/31 10:40:08;;;;;;;1.15;0.38;;;;;;;22.26;56.69;100987.41;5012864;28;20021;-60
2022/05/31 10:42:38;;;;;;;0.77;0.40;;;;;;;22.12;57.77;100980.06;5012531;28;20380;-61
2022/05/31 10:45:07;;;;;;;1.25;0.20;;;;;;;22.19;57.60;100983.75;5012802;28;20022;-61
2022/05/31 10:47:32;;;;;;;0.30;0.22;;;;;;;22.25;57.44;100977.47;5012518;28;20030;-61
2022/05/31 10:49:58;;;;;;;0.38;0.20;;;;;;;22.19;57.62;100984.59;5012843;28;20381;-60
2022/05/31 10:52:35;;;;;;;1.00;0.68;;;;;;;22.22;57.82;100977.88;5012506;28;20025;-60
2022/05/31 10:55:17;;;;;;;0.50;0.30;;;;;;;22.17;56.27;100980.31;5012640;28;20022;-60
2022/05/31 10:58:23;;;;;;;1.17;0.20;;;;;;;22.21;56.64;100985.25;5012686;28;20034;-59
2022/05/31 11:01:27;;;;;;;1.60;0.20;;;;;;;22.29;57.85;100988.88;4971222;28;20035;-60
2022/05/31 11:04:24;;;;;;;0.43;0.43;;;;;;;22.26;57.36;100990.13;4970136;28;20507;-60
2022/05/31 11:07:19;;;;;;;0.63;0.32;;;;;;;22.34;56.68;100989.16;4972488;28;20027;-56
2022/05/31 11:13:11;;;;;;;1.10;0.20;;;;;;;22.23;58.24;100984.19;4971114;28;20046;-60
2022/05/31 11:15:53;;;;;;;0.35;0.25;;;;;;;22.26;58.69;100995.59;4971211;28;20027;-60
2022/05/31 11:18:42;;;;;;;0.47;0.17;;;;;;;22.28;56.44;100989.94;4971017;28;20039;-60
2022/05/31 11:21:37;;;;;;;0.60;0.38;;;;;;;22.39;56.61;100990.28;4971097;28;20038;-60
2022/05/31 11:24:47;;;;;;;0.47;0.20;;;;;;;22.29;57.26;100978.78;4970989;28;20042;-60
2022/05/31 11:27:51;;;;;;;1.48;0.20;;;;;;;22.34;57.14;100987.28;4971047;28;20030;-60
2022/05/31 11:30:27;;;;;;;0.32;0.20;;;;;;;22.32;57.09;100989.34;4971149;28;20483;-60
2022/05/31 11:33:15;;;;;;;0.32;0.15;;;;;;;22.31;57.19;100981.31;4971019;28;20126;-59
2022/05/31 11:35:59;;;;;;;1.33;0.30;;;;;;;22.32;56.56;100978.38;4978366;28;20470;-60
2022/05/31 11:38:43;;;;;;;0.20;0.20;;;;;;;22.30;57.28;100980.47;5015873;28;20025;-60
2022/05/31 11:41:33;;;;;;;1.00;0.38;;;;;;;22.21;56.86;100981.66;5016381;28;20033;-60
2022/05/31 11:44:20;;;;;;;0.32;0.32;;;;;;;22.25;56.52;100977.47;5016053;28;20434;-60
2022/05/31 11:46:58;;;;;;;0.43;0.43;;;;;;;22.29;56.55;100986.16;5016052;28;20063;-60
2022/05/31 11:49:35;;;;;;;0.30;0.30;;;;;;;22.25;57.51;100976.63;5015753;28;20034;-60
2022/05/31 11:52:39;;;;;;;0.15;0.10;;;;;;;22.36;56.56;100978.88;5015702;28;20033;-59
2022/05/31 11:55:28;;;;;;;0.30;0.13;;;;;;;22.33;57.77;100969.13;4979368;28;20543;-60
2022/05/31 11:58:15;;;;;;;0.80;0.20;;;;;;;22.35;57.56;100977.19;4974315;28;20034;-60
2022/05/31 12:01:00;;;;;;;0.50;0.20;;;;;;;22.31;57.59;100971.22;4957833;28;20043;-60
2022/05/31 12:03:47;;;;;;;0.40;0.30;;;;;;;22.39;57.25;100962.88;4974205;28;20023;-60
2022/05/31 12:06:21;;;;;;;1.40;0.38;;;;;;;22.35;57.53;100972.56;4974052;28;20031;-60
2022/05/31 12:08:53;;;;;;;0.20;0.10;;;;;;;22.36;57.93;100967.91;4974112;28;20426;-60